sensor_id;sensor_type;location;lat;lon;timestamp;P1;durP1;ratioP1;P2;durP2;ratioP2
63965;SDS011;50151;52.030;5.350;2023-07-29T00:01:11;4.43;;;1.40;;
63965;SDS011;50151;52.030;5.350;2023-07-29T00:03:38;1.80;;;1.30;;
63965;SDS011;50151;52.030;5.350;2023-07-29T00:06:04;1.92;;;1.20;;
63965;SDS011;50151;52.030;5.350;2023-07-29T00:08:31;2.65;;;1.17;;
63965;SDS011;50151;52.030;5.350;2023-07-29T00:10:58;1.98;;;1.10;;
63965;SDS011;50151;52.030;5.350;2023-07-29T00:13:25;3.63;;;0.77;;
63965;SDS011;50151;52.030;5.350;2023-07-29T00:15:53;3.25;;;1.02;;
63965;SDS011;50151;52.030;5.350;2023-07-29T00:18:22;3.20;;;1.02;;
63965;SDS011;50151;52.030;5.350;2023-07-29T00:20:49;4.40;;;1.27;;
63965;SDS011;50151;52.030;5.350;2023-07-29T00:23:17;4.40;;;1.13;;
63965;SDS011;50151;52.030;5.350;2023-07-29T00:25:45;4.10;;;1.30;;
63965;SDS011;50151;52.030;5.350;2023-07-29T00:28:12;3.67;;;1.17;;
63965;SDS011;50151;52.030;5.350;2023-07-29T00:30:39;3.97;;;1.23;;
63965;SDS011;50151;52.030;5.350;2023-07-29T00:33:05;2.10;;;1.10;;
63965;SDS011;50151;52.030;5.350;2023-07-29T00:35:32;1.95;;;1.10;;
63965;SDS011;50151;52.030;5.350;2023-07-29T00:37:59;2.83;;;1.20;;
63965;SDS011;50151;52.030;5.350;2023-07-29T00:40:27;2.78;;;1.30;;
63965;SDS011;50151;52.030;5.350;2023-07-29T00:42:54;4.80;;;1.30;;
63965;SDS011;50151;52.030;5.350;2023-07-29T00:45:21;6.22;;;1.15;;
63965;SDS011;50151;52.030;5.350;2023-07-29T00:47:51;4.03;;;0.90;;
63965;SDS011;50151;52.030;5.350;2023-07-29T00:50:17;3.97;;;1.15;;
63965;SDS011;50151;52.030;5.350;2023-07-29T00:52:44;3.15;;;1.48;;
63965;SDS011;50151;52.030;5.350;2023-07-29T00:55:11;3.60;;;1.17;;
63965;SDS011;50151;52.030;5.350;2023-07-29T00:57:38;4.30;;;1.45;;
63965;SDS011;50151;52.030;5.350;2023-07-29T01:00:06;3.95;;;1.30;;
63965;SDS011;50151;52.030;5.350;2023-07-29T01:02:35;2.30;;;1.00;;
63965;SDS011;50151;52.030;5.350;2023-07-29T01:05:02;2.45;;;1.08;;
63965;SDS011;50151;52.030;5.350;2023-07-29T01:12:41;1.70;;;1.02;;
63965;SDS011;50151;52.030;5.350;2023-07-29T01:15:23;2.90;;;1.33;;
63965;SDS011;50151;52.030;5.350;2023-07-29T01:18:06;3.38;;;1.10;;
63965;SDS011;50151;52.030;5.350;2023-07-29T01:20:37;5.60;;;1.15;;
63965;SDS011;50151;52.030;5.350;2023-07-29T01:23:06;2.58;;;1.20;;
63965;SDS011;50151;52.030;5.350;2023-07-29T01:25:33;2.47;;;1.30;;
63965;SDS011;50151;52.030;5.350;2023-07-29T01:27:59;4.97;;;1.30;;
63965;SDS011;50151;52.030;5.350;2023-07-29T01:30:29;3.85;;;1.05;;
63965;SDS011;50151;52.030;5.350;2023-07-29T01:33:22;4.28;;;1.20;;
63965;SDS011;50151;52.030;5.350;2023-07-29T01:35:49;2.95;;;1.35;;
63965;SDS011;50151;52.030;5.350;2023-07-29T01:38:23;2.25;;;1.30;;
63965;SDS011;50151;52.030;5.350;2023-07-29T01:40:54;3.72;;;1.30;;
63965;SDS011;50151;52.030;5.350;2023-07-29T01:43:22;1.90;;;1.20;;
63965;SDS011;50151;52.030;5.350;2023-07-29T01:45:51;2.25;;;1.38;;
63965;SDS011;50151;52.030;5.350;2023-07-29T01:48:18;5.25;;;1.23;;
63965;SDS011;50151;52.030;5.350;2023-07-29T01:50:45;2.08;;;1.17;;
63965;SDS011;50151;52.030;5.350;2023-07-29T01:53:12;4.50;;;1.40;;
63965;SDS011;50151;52.030;5.350;2023-07-29T01:55:39;2.15;;;1.27;;
63965;SDS011;50151;52.030;5.350;2023-07-29T01:58:06;4.38;;;1.23;;
63965;SDS011;50151;52.030;5.350;2023-07-29T02:00:33;10.80;;;1.52;;
63965;SDS011;50151;52.030;5.350;2023-07-29T02:03:00;2.72;;;1.38;;
63965;SDS011;50151;52.030;5.350;2023-07-29T02:05:26;2.40;;;1.80;;
63965;SDS011;50151;52.030;5.350;2023-07-29T02:07:53;2.58;;;1.40;;
63965;SDS011;50151;52.030;5.350;2023-07-29T02:10:20;2.05;;;1.33;;
63965;SDS011;50151;52.030;5.350;2023-07-29T02:12:46;4.22;;;1.50;;
63965;SDS011;50151;52.030;5.350;2023-07-29T02:15:13;1.63;;;1.27;;
63965;SDS011;50151;52.030;5.350;2023-07-29T02:17:41;4.72;;;1.80;;
63965;SDS011;50151;52.030;5.350;2023-07-29T02:20:08;4.32;;;1.88;;
63965;SDS011;50151;52.030;5.350;2023-07-29T02:22:36;4.82;;;1.92;;
63965;SDS011;50151;52.030;5.350;2023-07-29T02:25:03;6.00;;;1.48;;
63965;SDS011;50151;52.030;5.350;2023-07-29T02:27:31;2.83;;;1.83;;
63965;SDS011;50151;52.030;5.350;2023-07-29T02:29:58;2.78;;;1.50;;
63965;SDS011;50151;52.030;5.350;2023-07-29T02:32:25;4.57;;;1.80;;
63965;SDS011;50151;52.030;5.350;2023-07-29T02:34:52;4.38;;;2.65;;
63965;SDS011;50151;52.030;5.350;2023-07-29T02:37:18;4.68;;;2.50;;
63965;SDS011;50151;52.030;5.350;2023-07-29T02:39:46;11.13;;;2.67;;
63965;SDS011;50151;52.030;5.350;2023-07-29T02:42:12;7.93;;;3.10;;
63965;SDS011;50151;52.030;5.350;2023-07-29T02:44:39;6.40;;;2.38;;
63965;SDS011;50151;52.030;5.350;2023-07-29T02:47:06;3.42;;;2.10;;
63965;SDS011;50151;52.030;5.350;2023-07-29T02:49:33;4.68;;;3.15;;
63965;SDS011;50151;52.030;5.350;2023-07-29T02:52:00;7.82;;;2.80;;
63965;SDS011;50151;52.030;5.350;2023-07-29T02:54:26;4.95;;;2.60;;
63965;SDS011;50151;52.030;5.350;2023-07-29T02:56:53;8.15;;;2.70;;
63965;SDS011;50151;52.030;5.350;2023-07-29T02:59:20;4.72;;;2.80;;
63965;SDS011;50151;52.030;5.350;2023-07-29T03:01:47;6.88;;;2.70;;
63965;SDS011;50151;52.030;5.350;2023-07-29T03:04:13;5.53;;;3.22;;
63965;SDS011;50151;52.030;5.350;2023-07-29T03:06:40;8.68;;;3.13;;
63965;SDS011;50151;52.030;5.350;2023-07-29T03:09:07;8.75;;;2.70;;
63965;SDS011;50151;52.030;5.350;2023-07-29T03:11:33;5.95;;;2.85;;
63965;SDS011;50151;52.030;5.350;2023-07-29T03:14:00;5.78;;;2.70;;
63965;SDS011;50151;52.030;5.350;2023-07-29T03:16:28;3.60;;;2.55;;
63965;SDS011;50151;52.030;5.350;2023-07-29T03:18:54;11.85;;;3.30;;
63965;SDS011;50151;52.030;5.350;2023-07-29T03:21:21;4.15;;;2.60;;
63965;SDS011;50151;52.030;5.350;2023-07-29T03:23:48;4.25;;;2.40;;
63965;SDS011;50151;52.030;5.350;2023-07-29T03:26:14;4.57;;;2.70;;
63965;SDS011;50151;52.030;5.350;2023-07-29T03:28:41;4.75;;;2.30;;
63965;SDS011;50151;52.030;5.350;2023-07-29T03:31:09;4.18;;;2.50;;
63965;SDS011;50151;52.030;5.350;2023-07-29T03:33:37;6.53;;;2.22;;
63965;SDS011;50151;52.030;5.350;2023-07-29T03:36:03;8.65;;;2.75;;
63965;SDS011;50151;52.030;5.350;2023-07-29T03:38:30;3.22;;;2.30;;
63965;SDS011;50151;52.030;5.350;2023-07-29T03:40:59;3.95;;;2.60;;
63965;SDS011;50151;52.030;5.350;2023-07-29T03:43:25;6.75;;;2.45;;
63965;SDS011;50151;52.030;5.350;2023-07-29T03:45:52;6.85;;;2.83;;
63965;SDS011;50151;52.030;5.350;2023-07-29T03:48:19;7.38;;;2.60;;
63965;SDS011;50151;52.030;5.350;2023-07-29T03:50:46;5.35;;;2.45;;
63965;SDS011;50151;52.030;5.350;2023-07-29T03:53:12;7.68;;;2.95;;
63965;SDS011;50151;52.030;5.350;2023-07-29T03:55:39;4.55;;;2.72;;
63965;SDS011;50151;52.030;5.350;2023-07-29T03:58:06;5.45;;;2.70;;
63965;SDS011;50151;52.030;5.350;2023-07-29T04:00:33;6.50;;;3.08;;
63965;SDS011;50151;52.030;5.350;2023-07-29T04:03:00;6.90;;;2.80;;
63965;SDS011;50151;52.030;5.350;2023-07-29T04:05:27;4.85;;;2.90;;
63965;SDS011;50151;52.030;5.350;2023-07-29T04:07:53;4.90;;;2.50;;
63965;SDS011;50151;52.030;5.350;2023-07-29T04:10:20;4.35;;;2.83;;
63965;SDS011;50151;52.030;5.350;2023-07-29T04:12:47;6.00;;;2.50;;
63965;SDS011;50151;52.030;5.350;2023-07-29T04:15:14;3.83;;;2.22;;
63965;SDS011;50151;52.030;5.350;2023-07-29T04:17:40;4.25;;;2.50;;
63965;SDS011;50151;52.030;5.350;2023-07-29T04:20:07;3.63;;;2.60;;
63965;SDS011;50151;52.030;5.350;2023-07-29T04:22:34;5.07;;;2.15;;
63965;SDS011;50151;52.030;5.350;2023-07-29T04:25:01;4.05;;;2.47;;
63965;SDS011;50151;52.030;5.350;2023-07-29T04:27:30;4.70;;;2.15;;
63965;SDS011;50151;52.030;5.350;2023-07-29T04:29:57;4.55;;;2.10;;
63965;SDS011;50151;52.030;5.350;2023-07-29T04:32:24;4.63;;;2.38;;
63965;SDS011;50151;52.030;5.350;2023-07-29T04:34:52;5.60;;;2.75;;
63965;SDS011;50151;52.030;5.350;2023-07-29T04:37:18;5.30;;;2.20;;
63965;SDS011;50151;52.030;5.350;2023-07-29T04:39:45;3.67;;;2.40;;
63965;SDS011;50151;52.030;5.350;2023-07-29T04:42:12;4.07;;;2.53;;
63965;SDS011;50151;52.030;5.350;2023-07-29T04:44:39;5.82;;;2.65;;
63965;SDS011;50151;52.030;5.350;2023-07-29T04:47:08;4.13;;;2.30;;
63965;SDS011;50151;52.030;5.350;2023-07-29T04:49:34;2.47;;;1.80;;
63965;SDS011;50151;52.030;5.350;2023-07-29T04:52:01;2.65;;;1.88;;
63965;SDS011;50151;52.030;5.350;2023-07-29T04:54:28;5.40;;;2.10;;
63965;SDS011;50151;52.030;5.350;2023-07-29T04:56:54;6.57;;;2.10;;
63965;SDS011;50151;52.030;5.350;2023-07-29T04:59:21;2.60;;;2.05;;
63965;SDS011;50151;52.030;5.350;2023-07-29T05:01:48;5.13;;;2.17;;
63965;SDS011;50151;52.030;5.350;2023-07-29T05:04:16;3.83;;;2.20;;
63965;SDS011;50151;52.030;5.350;2023-07-29T05:06:43;3.95;;;2.35;;
63965;SDS011;50151;52.030;5.350;2023-07-29T05:09:13;5.38;;;2.10;;
63965;SDS011;50151;52.030;5.350;2023-07-29T05:11:42;6.05;;;2.35;;
63965;SDS011;50151;52.030;5.350;2023-07-29T05:14:12;4.25;;;2.40;;
63965;SDS011;50151;52.030;5.350;2023-07-29T05:16:39;3.47;;;2.30;;
63965;SDS011;50151;52.030;5.350;2023-07-29T05:19:06;9.55;;;2.63;;
63965;SDS011;50151;52.030;5.350;2023-07-29T05:21:33;7.35;;;2.20;;
63965;SDS011;50151;52.030;5.350;2023-07-29T05:24:00;5.22;;;2.40;;
63965;SDS011;50151;52.030;5.350;2023-07-29T05:26:27;6.45;;;2.58;;
63965;SDS011;50151;52.030;5.350;2023-07-29T05:28:53;4.60;;;2.55;;
63965;SDS011;50151;52.030;5.350;2023-07-29T05:31:20;5.28;;;2.22;;
63965;SDS011;50151;52.030;5.350;2023-07-29T05:33:47;4.80;;;2.70;;
63965;SDS011;50151;52.030;5.350;2023-07-29T05:36:14;4.85;;;2.58;;
63965;SDS011;50151;52.030;5.350;2023-07-29T05:38:41;3.95;;;2.30;;
63965;SDS011;50151;52.030;5.350;2023-07-29T05:41:08;6.20;;;2.90;;
63965;SDS011;50151;52.030;5.350;2023-07-29T05:43:35;6.03;;;2.70;;
63965;SDS011;50151;52.030;5.350;2023-07-29T05:46:01;7.47;;;2.83;;
63965;SDS011;50151;52.030;5.350;2023-07-29T05:48:28;4.35;;;2.88;;
63965;SDS011;50151;52.030;5.350;2023-07-29T05:50:55;5.85;;;2.88;;
63965;SDS011;50151;52.030;5.350;2023-07-29T05:53:21;6.53;;;3.00;;
63965;SDS011;50151;52.030;5.350;2023-07-29T05:55:48;6.70;;;3.10;;
63965;SDS011;50151;52.030;5.350;2023-07-29T05:58:15;6.22;;;3.20;;
63965;SDS011;50151;52.030;5.350;2023-07-29T06:00:42;9.95;;;3.35;;
63965;SDS011;50151;52.030;5.350;2023-07-29T06:03:09;5.25;;;3.00;;
63965;SDS011;50151;52.030;5.350;2023-07-29T06:05:36;5.57;;;2.88;;
63965;SDS011;50151;52.030;5.350;2023-07-29T06:08:02;8.98;;;3.15;;
63965;SDS011;50151;52.030;5.350;2023-07-29T06:10:30;6.22;;;2.83;;
63965;SDS011;50151;52.030;5.350;2023-07-29T06:12:57;5.85;;;2.75;;
63965;SDS011;50151;52.030;5.350;2023-07-29T06:15:23;4.85;;;3.30;;
63965;SDS011;50151;52.030;5.350;2023-07-29T06:17:50;6.15;;;2.80;;
63965;SDS011;50151;52.030;5.350;2023-07-29T06:20:19;6.35;;;2.95;;
63965;SDS011;50151;52.030;5.350;2023-07-29T06:22:45;6.45;;;3.03;;
63965;SDS011;50151;52.030;5.350;2023-07-29T06:25:12;7.30;;;2.88;;
63965;SDS011;50151;52.030;5.350;2023-07-29T06:27:39;4.85;;;2.70;;
63965;SDS011;50151;52.030;5.350;2023-07-29T06:30:05;6.40;;;3.28;;
63965;SDS011;50151;52.030;5.350;2023-07-29T06:32:33;5.35;;;3.22;;
63965;SDS011;50151;52.030;5.350;2023-07-29T06:35:00;4.35;;;2.72;;
63965;SDS011;50151;52.030;5.350;2023-07-29T06:37:27;8.77;;;3.33;;
63965;SDS011;50151;52.030;5.350;2023-07-29T06:39:54;6.22;;;3.20;;
63965;SDS011;50151;52.030;5.350;2023-07-29T06:42:20;6.55;;;3.63;;
63965;SDS011;50151;52.030;5.350;2023-07-29T06:44:47;8.63;;;3.35;;
63965;SDS011;50151;52.030;5.350;2023-07-29T06:47:14;7.40;;;3.33;;
63965;SDS011;50151;52.030;5.350;2023-07-29T06:49:41;9.30;;;3.58;;
63965;SDS011;50151;52.030;5.350;2023-07-29T06:52:07;5.55;;;3.10;;
63965;SDS011;50151;52.030;5.350;2023-07-29T06:54:34;7.72;;;3.17;;
63965;SDS011;50151;52.030;5.350;2023-07-29T06:57:01;7.35;;;3.25;;
63965;SDS011;50151;52.030;5.350;2023-07-29T06:59:27;8.13;;;3.83;;
63965;SDS011;50151;52.030;5.350;2023-07-29T07:01:54;5.20;;;3.45;;
63965;SDS011;50151;52.030;5.350;2023-07-29T07:04:21;10.10;;;3.65;;
63965;SDS011;50151;52.030;5.350;2023-07-29T07:06:47;9.20;;;3.72;;
63965;SDS011;50151;52.030;5.350;2023-07-29T07:09:14;10.13;;;3.60;;
63965;SDS011;50151;52.030;5.350;2023-07-29T07:11:41;7.95;;;3.28;;
63965;SDS011;50151;52.030;5.350;2023-07-29T07:14:08;4.05;;;2.60;;
63965;SDS011;50151;52.030;5.350;2023-07-29T07:16:34;6.15;;;3.58;;
63965;SDS011;50151;52.030;5.350;2023-07-29T07:19:04;6.60;;;3.03;;
63965;SDS011;50151;52.030;5.350;2023-07-29T07:21:31;8.02;;;2.83;;
63965;SDS011;50151;52.030;5.350;2023-07-29T07:23:58;8.90;;;3.30;;
63965;SDS011;50151;52.030;5.350;2023-07-29T07:26:25;10.35;;;3.17;;
63965;SDS011;50151;52.030;5.350;2023-07-29T07:28:52;6.43;;;3.38;;
63965;SDS011;50151;52.030;5.350;2023-07-29T07:31:18;6.28;;;3.28;;
63965;SDS011;50151;52.030;5.350;2023-07-29T07:33:46;5.50;;;3.17;;
63965;SDS011;50151;52.030;5.350;2023-07-29T07:36:12;8.43;;;3.20;;
63965;SDS011;50151;52.030;5.350;2023-07-29T07:38:39;9.15;;;3.30;;
63965;SDS011;50151;52.030;5.350;2023-07-29T07:41:06;14.27;;;3.58;;
63965;SDS011;50151;52.030;5.350;2023-07-29T07:43:33;4.60;;;3.45;;
63965;SDS011;50151;52.030;5.350;2023-07-29T07:46:00;6.70;;;2.83;;
63965;SDS011;50151;52.030;5.350;2023-07-29T07:48:28;8.90;;;3.10;;
63965;SDS011;50151;52.030;5.350;2023-07-29T07:50:54;4.85;;;2.83;;
63965;SDS011;50151;52.030;5.350;2023-07-29T07:53:21;5.65;;;3.25;;
63965;SDS011;50151;52.030;5.350;2023-07-29T07:55:48;7.38;;;3.20;;
63965;SDS011;50151;52.030;5.350;2023-07-29T07:58:14;4.22;;;2.58;;
63965;SDS011;50151;52.030;5.350;2023-07-29T08:00:41;9.52;;;3.20;;
63965;SDS011;50151;52.030;5.350;2023-07-29T08:03:08;5.93;;;2.35;;
63965;SDS011;50151;52.030;5.350;2023-07-29T08:05:35;7.43;;;2.47;;
63965;SDS011;50151;52.030;5.350;2023-07-29T08:08:02;4.35;;;2.10;;
63965;SDS011;50151;52.030;5.350;2023-07-29T08:10:28;4.53;;;2.20;;
63965;SDS011;50151;52.030;5.350;2023-07-29T08:12:55;3.78;;;2.13;;
63965;SDS011;50151;52.030;5.350;2023-07-29T08:15:22;5.28;;;1.80;;
63965;SDS011;50151;52.030;5.350;2023-07-29T08:17:48;3.28;;;1.70;;
63965;SDS011;50151;52.030;5.350;2023-07-29T08:20:15;3.60;;;1.70;;
63965;SDS011;50151;52.030;5.350;2023-07-29T08:22:42;2.95;;;1.45;;
63965;SDS011;50151;52.030;5.350;2023-07-29T08:25:09;6.72;;;1.80;;
63965;SDS011;50151;52.030;5.350;2023-07-29T08:27:35;4.47;;;1.60;;
63965;SDS011;50151;52.030;5.350;2023-07-29T08:30:02;7.97;;;1.90;;
63965;SDS011;50151;52.030;5.350;2023-07-29T08:32:29;5.10;;;1.67;;
63965;SDS011;50151;52.030;5.350;2023-07-29T08:34:56;3.70;;;1.67;;
63965;SDS011;50151;52.030;5.350;2023-07-29T08:37:23;5.47;;;1.73;;
63965;SDS011;50151;52.030;5.350;2023-07-29T08:39:50;3.40;;;1.88;;
63965;SDS011;50151;52.030;5.350;2023-07-29T08:42:20;4.22;;;1.65;;
63965;SDS011;50151;52.030;5.350;2023-07-29T08:44:49;2.45;;;1.67;;
63965;SDS011;50151;52.030;5.350;2023-07-29T08:47:17;5.18;;;1.98;;
63965;SDS011;50151;52.030;5.350;2023-07-29T08:49:45;6.40;;;2.08;;
63965;SDS011;50151;52.030;5.350;2023-07-29T08:52:13;4.10;;;2.30;;
63965;SDS011;50151;52.030;5.350;2023-07-29T08:54:41;5.30;;;2.60;;
63965;SDS011;50151;52.030;5.350;2023-07-29T08:57:08;8.63;;;2.30;;
63965;SDS011;50151;52.030;5.350;2023-07-29T08:59:35;3.22;;;2.35;;
63965;SDS011;50151;52.030;5.350;2023-07-29T09:02:02;3.15;;;2.08;;
63965;SDS011;50151;52.030;5.350;2023-07-29T09:04:29;3.53;;;1.73;;
63965;SDS011;50151;52.030;5.350;2023-07-29T09:06:56;2.58;;;1.77;;
63965;SDS011;50151;52.030;5.350;2023-07-29T09:09:23;3.88;;;1.83;;
63965;SDS011;50151;52.030;5.350;2023-07-29T09:11:51;4.15;;;1.80;;
63965;SDS011;50151;52.030;5.350;2023-07-29T09:14:17;3.38;;;2.00;;
63965;SDS011;50151;52.030;5.350;2023-07-29T09:16:45;3.03;;;2.10;;
63965;SDS011;50151;52.030;5.350;2023-07-29T09:19:12;4.28;;;2.00;;
63965;SDS011;50151;52.030;5.350;2023-07-29T09:21:39;2.60;;;1.73;;
63965;SDS011;50151;52.030;5.350;2023-07-29T09:24:06;3.65;;;1.95;;
63965;SDS011;50151;52.030;5.350;2023-07-29T09:26:34;3.22;;;2.05;;
63965;SDS011;50151;52.030;5.350;2023-07-29T09:29:02;3.33;;;1.85;;
63965;SDS011;50151;52.030;5.350;2023-07-29T09:31:29;4.10;;;1.75;;
63965;SDS011;50151;52.030;5.350;2023-07-29T09:33:57;3.90;;;2.10;;
63965;SDS011;50151;52.030;5.350;2023-07-29T09:36:25;5.80;;;1.95;;
63965;SDS011;50151;52.030;5.350;2023-07-29T09:38:56;3.15;;;1.90;;
63965;SDS011;50151;52.030;5.350;2023-07-29T09:41:23;5.13;;;1.80;;
63965;SDS011;50151;52.030;5.350;2023-07-29T09:43:54;3.15;;;1.70;;
63965;SDS011;50151;52.030;5.350;2023-07-29T09:46:24;9.30;;;1.63;;
63965;SDS011;50151;52.030;5.350;2023-07-29T09:48:53;5.15;;;1.50;;
63965;SDS011;50151;52.030;5.350;2023-07-29T09:51:23;4.15;;;1.80;;
63965;SDS011;50151;52.030;5.350;2023-07-29T09:53:51;3.08;;;1.40;;
63965;SDS011;50151;52.030;5.350;2023-07-29T09:56:18;2.70;;;1.50;;
63965;SDS011;50151;52.030;5.350;2023-07-29T09:58:52;13.88;;;1.42;;
63965;SDS011;50151;52.030;5.350;2023-07-29T10:01:21;1.38;;;1.25;;
63965;SDS011;50151;52.030;5.350;2023-07-29T10:03:48;1.58;;;1.30;;
63965;SDS011;50151;52.030;5.350;2023-07-29T10:06:15;2.15;;;1.40;;
63965;SDS011;50151;52.030;5.350;2023-07-29T10:08:44;5.22;;;1.48;;
63965;SDS011;50151;52.030;5.350;2023-07-29T10:11:11;2.22;;;1.40;;
63965;SDS011;50151;52.030;5.350;2023-07-29T10:13:38;2.50;;;1.30;;
63965;SDS011;50151;52.030;5.350;2023-07-29T10:16:05;2.53;;;1.50;;
63965;SDS011;50151;52.030;5.350;2023-07-29T10:18:32;2.13;;;1.30;;
63965;SDS011;50151;52.030;5.350;2023-07-29T10:21:00;2.67;;;1.33;;
63965;SDS011;50151;52.030;5.350;2023-07-29T10:23:37;2.40;;;1.35;;
63965;SDS011;50151;52.030;5.350;2023-07-29T10:26:10;2.33;;;1.30;;
63965;SDS011;50151;52.030;5.350;2023-07-29T10:28:39;2.08;;;1.02;;
63965;SDS011;50151;52.030;5.350;2023-07-29T10:31:09;3.03;;;1.58;;
63965;SDS011;50151;52.030;5.350;2023-07-29T10:33:36;3.42;;;1.00;;
63965;SDS011;50151;52.030;5.350;2023-07-29T10:36:04;3.17;;;0.95;;
63965;SDS011;50151;52.030;5.350;2023-07-29T10:38:31;3.90;;;1.35;;
63965;SDS011;50151;52.030;5.350;2023-07-29T10:40:59;1.85;;;1.08;;
63965;SDS011;50151;52.030;5.350;2023-07-29T10:46:16;2.70;;;1.20;;
63965;SDS011;50151;52.030;5.350;2023-07-29T10:51:30;5.60;;;1.20;;
63965;SDS011;50151;52.030;5.350;2023-07-29T10:56:30;4.43;;;1.50;;
63965;SDS011;50151;52.030;5.350;2023-07-29T10:59:22;2.58;;;1.60;;
63965;SDS011;50151;52.030;5.350;2023-07-29T11:01:59;5.40;;;1.23;;
63965;SDS011;50151;52.030;5.350;2023-07-29T11:04:28;4.85;;;1.30;;
63965;SDS011;50151;52.030;5.350;2023-07-29T11:15:32;1.92;;;1.10;;
63965;SDS011;50151;52.030;5.350;2023-07-29T11:18:00;1.75;;;1.40;;
63965;SDS011;50151;52.030;5.350;2023-07-29T11:20:29;5.85;;;1.33;;
63965;SDS011;50151;52.030;5.350;2023-07-29T11:22:59;1.75;;;1.40;;
63965;SDS011;50151;52.030;5.350;2023-07-29T11:25:28;6.20;;;1.35;;
63965;SDS011;50151;52.030;5.350;2023-07-29T11:27:57;2.50;;;1.70;;
63965;SDS011;50151;52.030;5.350;2023-07-29T11:30:25;2.17;;;1.63;;
63965;SDS011;50151;52.030;5.350;2023-07-29T11:32:55;2.15;;;1.42;;
63965;SDS011;50151;52.030;5.350;2023-07-29T11:35:23;4.65;;;1.77;;
63965;SDS011;50151;52.030;5.350;2023-07-29T11:37:51;3.50;;;1.95;;
63965;SDS011;50151;52.030;5.350;2023-07-29T11:40:23;2.15;;;1.42;;
63965;SDS011;50151;52.030;5.350;2023-07-29T11:42:51;5.03;;;1.70;;
63965;SDS011;50151;52.030;5.350;2023-07-29T11:45:20;3.38;;;2.08;;
63965;SDS011;50151;52.030;5.350;2023-07-29T11:47:50;3.92;;;1.70;;
63965;SDS011;50151;52.030;5.350;2023-07-29T11:50:17;5.03;;;2.17;;
63965;SDS011;50151;52.030;5.350;2023-07-29T11:52:44;3.05;;;2.00;;
63965;SDS011;50151;52.030;5.350;2023-07-29T11:55:14;2.92;;;1.88;;
63965;SDS011;50151;52.030;5.350;2023-07-29T11:57:42;1.63;;;1.40;;
63965;SDS011;50151;52.030;5.350;2023-07-29T12:00:09;2.08;;;1.63;;
63965;SDS011;50151;52.030;5.350;2023-07-29T12:02:39;1.55;;;1.40;;
63965;SDS011;50151;52.030;5.350;2023-07-29T12:05:08;2.65;;;1.60;;
63965;SDS011;50151;52.030;5.350;2023-07-29T12:07:38;3.17;;;1.73;;
63965;SDS011;50151;52.030;5.350;2023-07-29T12:10:05;6.22;;;1.73;;
63965;SDS011;50151;52.030;5.350;2023-07-29T12:12:32;4.50;;;1.38;;
63965;SDS011;50151;52.030;5.350;2023-07-29T12:14:59;2.95;;;1.65;;
63965;SDS011;50151;52.030;5.350;2023-07-29T12:17:26;6.70;;;1.80;;
63965;SDS011;50151;52.030;5.350;2023-07-29T12:19:54;3.15;;;1.70;;
63965;SDS011;50151;52.030;5.350;2023-07-29T12:22:21;3.70;;;1.67;;
63965;SDS011;50151;52.030;5.350;2023-07-29T12:24:50;2.10;;;1.23;;
63965;SDS011;50151;52.030;5.350;2023-07-29T12:27:19;3.78;;;1.27;;
63965;SDS011;50151;52.030;5.350;2023-07-29T12:29:48;6.68;;;1.33;;
63965;SDS011;50151;52.030;5.350;2023-07-29T12:32:18;2.63;;;1.40;;
63965;SDS011;50151;52.030;5.350;2023-07-29T12:34:45;6.65;;;1.50;;
63965;SDS011;50151;52.030;5.350;2023-07-29T12:37:11;3.03;;;1.40;;
63965;SDS011;50151;52.030;5.350;2023-07-29T12:39:41;1.70;;;1.02;;
63965;SDS011;50151;52.030;5.350;2023-07-29T12:42:08;2.55;;;1.58;;
63965;SDS011;50151;52.030;5.350;2023-07-29T12:44:36;1.25;;;1.10;;
63965;SDS011;50151;52.030;5.350;2023-07-29T12:47:04;2.95;;;1.40;;
63965;SDS011;50151;52.030;5.350;2023-07-29T12:49:32;1.35;;;1.00;;
63965;SDS011;50151;52.030;5.350;2023-07-29T12:51:59;1.85;;;1.00;;
63965;SDS011;50151;52.030;5.350;2023-07-29T12:54:26;1.30;;;1.00;;
63965;SDS011;50151;52.030;5.350;2023-07-29T12:56:53;2.08;;;1.05;;
63965;SDS011;50151;52.030;5.350;2023-07-29T12:59:20;1.27;;;1.00;;
63965;SDS011;50151;52.030;5.350;2023-07-29T13:01:46;2.15;;;1.20;;
63965;SDS011;50151;52.030;5.350;2023-07-29T13:04:13;1.88;;;1.20;;
63965;SDS011;50151;52.030;5.350;2023-07-29T13:06:40;1.83;;;1.38;;
63965;SDS011;50151;52.030;5.350;2023-07-29T13:09:07;1.17;;;1.02;;
63965;SDS011;50151;52.030;5.350;2023-07-29T13:11:34;2.65;;;1.40;;
63965;SDS011;50151;52.030;5.350;2023-07-29T13:14:01;1.85;;;1.35;;
63965;SDS011;50151;52.030;5.350;2023-07-29T13:16:28;1.88;;;1.30;;
63965;SDS011;50151;52.030;5.350;2023-07-29T13:18:55;2.17;;;1.25;;
63965;SDS011;50151;52.030;5.350;2023-07-29T13:21:22;2.28;;;1.10;;
63965;SDS011;50151;52.030;5.350;2023-07-29T13:23:49;3.28;;;1.40;;
63965;SDS011;50151;52.030;5.350;2023-07-29T13:26:17;3.20;;;1.58;;
63965;SDS011;50151;52.030;5.350;2023-07-29T13:28:44;1.67;;;1.55;;
63965;SDS011;50151;52.030;5.350;2023-07-29T13:31:10;2.80;;;1.50;;
63965;SDS011;50151;52.030;5.350;2023-07-29T13:33:37;2.78;;;1.80;;
63965;SDS011;50151;52.030;5.350;2023-07-29T13:36:05;2.15;;;1.60;;
63965;SDS011;50151;52.030;5.350;2023-07-29T13:38:31;3.25;;;1.63;;
63965;SDS011;50151;52.030;5.350;2023-07-29T13:40:58;2.50;;;1.80;;
63965;SDS011;50151;52.030;5.350;2023-07-29T13:43:25;2.88;;;1.67;;
63965;SDS011;50151;52.030;5.350;2023-07-29T13:45:52;4.20;;;2.20;;
63965;SDS011;50151;52.030;5.350;2023-07-29T13:48:18;6.75;;;1.98;;
63965;SDS011;50151;52.030;5.350;2023-07-29T13:50:46;2.25;;;1.90;;
63965;SDS011;50151;52.030;5.350;2023-07-29T13:53:12;2.75;;;1.83;;
63965;SDS011;50151;52.030;5.350;2023-07-29T13:55:39;4.53;;;1.83;;
63965;SDS011;50151;52.030;5.350;2023-07-29T13:58:06;1.95;;;1.70;;
63965;SDS011;50151;52.030;5.350;2023-07-29T14:00:33;4.15;;;1.48;;
63965;SDS011;50151;52.030;5.350;2023-07-29T14:02:59;2.55;;;1.60;;
63965;SDS011;50151;52.030;5.350;2023-07-29T14:05:26;3.50;;;1.85;;
63965;SDS011;50151;52.030;5.350;2023-07-29T14:07:53;2.08;;;1.63;;
63965;SDS011;50151;52.030;5.350;2023-07-29T14:10:19;4.10;;;1.75;;
63965;SDS011;50151;52.030;5.350;2023-07-29T14:12:46;6.03;;;1.80;;
63965;SDS011;50151;52.030;5.350;2023-07-29T14:15:13;3.90;;;1.50;;
63965;SDS011;50151;52.030;5.350;2023-07-29T14:17:40;2.88;;;1.25;;
63965;SDS011;50151;52.030;5.350;2023-07-29T14:20:06;2.53;;;1.27;;
63965;SDS011;50151;52.030;5.350;2023-07-29T14:22:35;3.80;;;1.70;;
63965;SDS011;50151;52.030;5.350;2023-07-29T14:25:02;2.35;;;1.48;;
63965;SDS011;50151;52.030;5.350;2023-07-29T14:27:29;4.22;;;1.65;;
63965;SDS011;50151;52.030;5.350;2023-07-29T14:29:56;2.88;;;1.20;;
63965;SDS011;50151;52.030;5.350;2023-07-29T14:32:23;1.88;;;1.10;;
63965;SDS011;50151;52.030;5.350;2023-07-29T14:34:50;2.67;;;0.90;;
63965;SDS011;50151;52.030;5.350;2023-07-29T14:37:17;2.53;;;0.93;;
63965;SDS011;50151;52.030;5.350;2023-07-29T14:39:44;2.53;;;0.90;;
63965;SDS011;50151;52.030;5.350;2023-07-29T14:42:10;1.02;;;0.70;;
63965;SDS011;50151;52.030;5.350;2023-07-29T14:44:37;3.92;;;0.70;;
63965;SDS011;50151;52.030;5.350;2023-07-29T14:47:04;1.67;;;0.82;;
63965;SDS011;50151;52.030;5.350;2023-07-29T14:49:31;1.52;;;0.73;;
63965;SDS011;50151;52.030;5.350;2023-07-29T14:51:58;2.08;;;0.80;;
63965;SDS011;50151;52.030;5.350;2023-07-29T14:54:24;2.58;;;0.95;;
63965;SDS011;50151;52.030;5.350;2023-07-29T14:56:51;1.38;;;0.98;;
63965;SDS011;50151;52.030;5.350;2023-07-29T14:59:18;1.45;;;0.70;;
63965;SDS011;50151;52.030;5.350;2023-07-29T15:01:45;7.43;;;1.08;;
63965;SDS011;50151;52.030;5.350;2023-07-29T15:04:11;2.28;;;0.90;;
63965;SDS011;50151;52.030;5.350;2023-07-29T15:06:38;1.52;;;0.75;;
63965;SDS011;50151;52.030;5.350;2023-07-29T15:09:05;3.28;;;0.88;;
63965;SDS011;50151;52.030;5.350;2023-07-29T15:11:32;2.05;;;0.82;;